createdAt,value
2018-10-06T00:01:11.221Z,98160.36
2018-10-06T00:03:41.693Z,98154.23
2018-10-06T00:06:12.240Z,98160.12
2018-10-06T00:08:46.471Z,98150.75
2018-10-06T00:11:17.577Z,98157.00
2018-10-06T00:13:48.132Z,98155.25
2018-10-06T00:16:18.645Z,98148.03
2018-10-06T00:18:49.306Z,98146.38
2018-10-06T00:21:19.985Z,98142.08
2018-10-06T00:23:50.700Z,98140.48
2018-10-06T00:26:21.388Z,98137.52
2018-10-06T00:28:51.900Z,98141.41
2018-10-06T00:31:22.476Z,98140.56
2018-10-06T00:33:53.202Z,98142.46
2018-10-06T00:36:23.704Z,98145.21
2018-10-06T00:38:54.162Z,98140.62
2018-10-06T00:41:31.100Z,98141.06
2018-10-06T00:44:01.748Z,98140.66
2018-10-06T00:46:32.263Z,98137.36
2018-10-06T00:49:03.075Z,98137.77
2018-10-06T00:51:33.640Z,98133.47
2018-10-06T00:54:04.480Z,98128.33
2018-10-06T00:56:35.196Z,98138.17
2018-10-06T00:59:06.197Z,98134.77
2018-10-06T01:01:36.878Z,98136.14
2018-10-06T01:04:07.453Z,98133.55
2018-10-06T01:06:38.131Z,98127.44
2018-10-06T01:09:10.041Z,98122.95
2018-10-06T01:11:40.941Z,98119.22
2018-10-06T01:14:11.562Z,98122.00
2018-10-06T01:16:42.287Z,98112.55
2018-10-06T01:19:13.053Z,98111.03
2018-10-06T01:21:43.747Z,98110.95
2018-10-06T01:24:14.381Z,98117.33
2018-10-06T01:26:45.250Z,98120.80
2018-10-06T01:29:15.761Z,98119.70
2018-10-06T01:31:46.549Z,98113.03
2018-10-06T01:34:17.413Z,98106.06
2018-10-06T01:36:47.871Z,98102.13
2018-10-06T01:39:18.524Z,98097.88
2018-10-06T01:41:49.195Z,98085.80
2018-10-06T01:44:19.911Z,98087.50
2018-10-06T01:46:50.412Z,98085.80
2018-10-06T01:49:21.149Z,98086.77
2018-10-06T01:51:51.873Z,98090.50
2018-10-06T01:54:22.465Z,98091.72
2018-10-06T01:56:53.058Z,98093.83
2018-10-06T01:59:23.504Z,98092.41
2018-10-06T02:01:54.224Z,98090.75
2018-10-06T02:04:26.056Z,98080.79
2018-10-06T02:06:57.404Z,98085.48
2018-10-06T02:09:28.052Z,98082.48
2018-10-06T02:11:58.424Z,98074.38
2018-10-06T02:14:29.018Z,98072.27
2018-10-06T02:16:59.879Z,98079.86
2018-10-06T02:19:30.694Z,98083.38
2018-10-06T02:22:01.090Z,98079.23
2018-10-06T02:24:31.676Z,98075.44
2018-10-06T02:27:02.448Z,98072.84
2018-10-06T02:29:33.098Z,98062.88
2018-10-06T02:32:03.430Z,98054.24
2018-10-06T02:34:33.790Z,98055.98
2018-10-06T02:37:04.099Z,98049.91
2018-10-06T02:39:34.461Z,98049.95
2018-10-06T02:42:04.791Z,98059.55
2018-10-06T02:44:35.113Z,98053.59
2018-10-06T02:47:05.516Z,98049.70
2018-10-06T02:49:35.958Z,98037.55
2018-10-06T02:52:06.292Z,98041.44
2018-10-06T02:54:36.705Z,98049.30
2018-10-06T02:57:07.372Z,98054.92
2018-10-06T02:59:38.076Z,98054.36
2018-10-06T03:02:08.706Z,98053.27
2018-10-06T03:04:39.030Z,98062.19
2018-10-06T03:07:09.420Z,98056.36
2018-10-06T03:09:39.758Z,98055.83
2018-10-06T03:12:10.184Z,98049.27
2018-10-06T03:14:41.154Z,98044.84
2018-10-06T03:17:11.484Z,98048.37
2018-10-06T03:19:41.932Z,98050.96
2018-10-06T03:22:12.328Z,98055.67
2018-10-06T03:24:43.043Z,98053.44
2018-10-06T03:27:14.788Z,98043.47
2018-10-06T03:29:45.662Z,98043.22
2018-10-06T03:32:16.009Z,98036.20
2018-10-06T03:34:46.489Z,98037.42
2018-10-06T03:37:16.709Z,98029.27
2018-10-06T03:39:47.092Z,98018.03
2018-10-06T03:42:17.416Z,98020.55
2018-10-06T03:44:47.976Z,98014.92
2018-10-06T03:47:18.318Z,98023.55
2018-10-06T03:49:49.282Z,98024.20
2018-10-06T03:52:19.645Z,98026.07
2018-10-06T03:54:50.120Z,98020.16
2018-10-06T03:57:20.501Z,98027.55
2018-10-06T03:59:50.943Z,98022.52
2018-10-06T04:02:21.343Z,98022.20
2018-10-06T04:04:51.657Z,98017.53
2018-10-06T04:07:22.041Z,98018.42
2018-10-06T04:09:52.445Z,98018.95
2018-10-06T04:12:22.671Z,98020.74
2018-10-06T04:14:53.260Z,98020.30
2018-10-06T04:17:23.517Z,98018.06
2018-10-06T04:19:54.128Z,98020.13
2018-10-06T04:22:24.344Z,98012.48
2018-10-06T04:24:54.975Z,98002.22
2018-10-06T04:27:25.337Z,98008.34
2018-10-06T04:29:56.391Z,98008.55
2018-10-06T04:32:26.729Z,98007.73
2018-10-06T04:34:57.336Z,98004.73
2018-10-06T04:37:28.154Z,98003.08
2018-10-06T04:39:58.517Z,98004.90
2018-10-06T04:42:29.265Z,97999.34
2018-10-06T04:44:59.997Z,97999.71
2018-10-06T04:47:30.451Z,97993.60
2018-10-06T04:50:00.989Z,97997.49
2018-10-06T04:52:31.285Z,97996.19
2018-10-06T04:55:02.231Z,97996.59
2018-10-06T04:57:33.145Z,98001.61
2018-10-06T05:00:03.513Z,97995.33
2018-10-06T05:02:34.069Z,97992.78
2018-10-06T05:05:04.832Z,97989.42
2018-10-06T05:07:35.309Z,97990.48
2018-10-06T05:10:06.551Z,97994.41
2018-10-06T05:12:36.949Z,97999.19
2018-10-06T05:15:07.714Z,97998.78
2018-10-06T05:17:38.737Z,97994.86
2018-10-06T05:20:09.173Z,97995.70
2018-10-06T05:22:39.871Z,97993.52
2018-10-06T05:25:10.529Z,97985.66
2018-10-06T05:27:41.510Z,97991.89
2018-10-06T05:30:11.919Z,97994.77
2018-10-06T05:32:42.429Z,97995.63
2018-10-06T05:35:12.823Z,97997.68
2018-10-06T05:37:43.717Z,97996.71
2018-10-06T05:40:14.044Z,98000.11
2018-10-06T05:42:44.887Z,97995.64
2018-10-06T05:45:16.065Z,97994.18
2018-10-06T05:47:46.671Z,97992.72
2018-10-06T05:50:17.712Z,97994.38
2018-10-06T05:52:48.639Z,97992.14
2018-10-06T05:55:19.557Z,97989.91
2018-10-06T05:57:50.346Z,97990.41
2018-10-06T06:00:20.951Z,97997.89
2018-10-06T06:02:53.089Z,97996.24
2018-10-06T06:05:24.193Z,97995.92
2018-10-06T06:07:55.000Z,97994.00
2018-10-06T06:10:28.502Z,98003.08
2018-10-06T06:12:59.708Z,98005.58
2018-10-06T06:15:30.961Z,98013.55
2018-10-06T06:18:08.510Z,98018.56
2018-10-06T06:20:39.119Z,98017.56
2018-10-06T06:23:09.525Z,98015.70
2018-10-06T06:25:39.845Z,98010.63
2018-10-06T06:28:11.129Z,98011.64
2018-10-06T06:30:41.570Z,98010.91
2018-10-06T06:33:12.254Z,98013.63
2018-10-06T06:35:43.083Z,98021.48
2018-10-06T06:38:13.681Z,98034.75
2018-10-06T06:40:44.120Z,98028.52
2018-10-06T06:43:14.458Z,98027.13
2018-10-06T06:45:45.082Z,98023.30
2018-10-06T06:48:15.749Z,98017.81
2018-10-06T06:50:46.908Z,98017.36
2018-10-06T06:53:18.333Z,98025.58
2018-10-06T06:55:49.336Z,98027.63
2018-10-06T06:58:20.120Z,98024.55
2018-10-06T07:00:50.779Z,98020.00
2018-10-06T07:03:21.630Z,98024.91
2018-10-06T07:05:52.163Z,98020.25
2018-10-06T07:08:22.497Z,98021.77
2018-10-06T07:10:52.930Z,98020.27
2018-10-06T07:13:23.362Z,98019.70
2018-10-06T07:15:53.844Z,98017.95
2018-10-06T07:18:34.956Z,98016.86
2018-10-06T07:21:05.356Z,98016.02
2018-10-06T07:23:35.965Z,98014.95
2018-10-06T07:26:06.360Z,98009.81
2018-10-06T07:28:36.870Z,98016.80
2018-10-06T07:31:07.057Z,98013.56
2018-10-06T07:33:42.890Z,98007.30
2018-10-06T07:36:14.686Z,98009.95
2018-10-06T07:38:45.211Z,98006.57
2018-10-06T07:41:15.618Z,98004.36
2018-10-06T07:43:46.137Z,98000.77
2018-10-06T07:46:16.696Z,98003.77
2018-10-06T07:48:47.166Z,98003.82
2018-10-06T07:51:18.050Z,98003.02
2018-10-06T07:53:48.382Z,98002.77
2018-10-06T07:56:18.788Z,97992.16
2018-10-06T07:58:49.177Z,97984.25
2018-10-06T08:01:20.739Z,97983.00
2018-10-06T08:03:52.482Z,97993.28
2018-10-06T08:06:23.380Z,97989.91
2018-10-06T08:08:53.725Z,97982.86
2018-10-06T08:11:24.080Z,97986.50
2018-10-06T08:13:54.523Z,97985.76
2018-10-06T08:16:24.832Z,97980.63
2018-10-06T08:18:55.355Z,97971.80
2018-10-06T08:21:25.652Z,97966.86
2018-10-06T08:23:56.889Z,97974.55
2018-10-06T08:26:27.195Z,97972.98
2018-10-06T08:28:57.509Z,97970.78
2018-10-06T08:31:27.903Z,97970.00
2018-10-06T08:33:58.183Z,97974.83
2018-10-06T08:36:28.503Z,97968.25
2018-10-06T08:38:58.887Z,97966.52
2018-10-06T08:41:29.289Z,97966.84
2018-10-06T08:43:59.835Z,97965.11
2018-10-06T08:46:30.207Z,97958.44
2018-10-06T08:49:00.576Z,97955.66
2018-10-06T08:51:30.874Z,97956.11
2018-10-06T08:54:01.130Z,97953.72
2018-10-06T08:56:31.500Z,97952.14
2018-10-06T08:59:01.868Z,97956.34
2018-10-06T09:01:32.246Z,97955.69
2018-10-06T09:04:02.921Z,97950.73
2018-10-06T09:06:33.208Z,97953.03
2018-10-06T09:09:05.230Z,97948.59
2018-10-06T09:11:35.725Z,97943.69
2018-10-06T09:14:06.049Z,97945.16
2018-10-06T09:16:36.405Z,97932.69
2018-10-06T09:19:07.454Z,97925.11
2018-10-06T09:21:37.837Z,97927.27
2018-10-06T09:24:08.255Z,97929.44
2018-10-06T09:26:39.233Z,97921.14
2018-10-06T09:29:09.741Z,97925.70
2018-10-06T09:31:40.141Z,97927.09
2018-10-06T09:34:10.647Z,97921.00
2018-10-06T09:36:40.932Z,97918.73
2018-10-06T09:39:11.355Z,97919.85
2018-10-06T09:41:41.691Z,97915.12
2018-10-06T09:44:11.923Z,97910.39
2018-10-06T09:46:42.236Z,97899.64
2018-10-06T09:49:12.391Z,97897.46
2018-10-06T09:51:42.810Z,97897.70
2018-10-06T09:54:13.068Z,97891.37
2018-10-06T09:56:43.555Z,97879.83
2018-10-06T09:59:13.788Z,97878.20
2018-10-06T10:01:49.479Z,97869.77
2018-10-06T10:04:19.753Z,97864.36
2018-10-06T10:06:50.009Z,97870.64
2018-10-06T10:09:20.254Z,97862.64
2018-10-06T10:11:50.553Z,97860.97
2018-10-06T10:14:20.801Z,97869.75
2018-10-06T10:16:51.092Z,97858.72
2018-10-06T10:19:21.395Z,97854.16
2018-10-06T10:21:51.745Z,97844.87
2018-10-06T10:24:22.011Z,97845.34
2018-10-06T10:26:52.481Z,97844.63
2018-10-06T10:29:22.861Z,97837.45
2018-10-06T10:31:53.302Z,97827.83
2018-10-06T10:34:23.759Z,97820.31
2018-10-06T10:36:54.477Z,97817.58
2018-10-06T10:39:25.080Z,97808.59
2018-10-06T10:41:55.421Z,97808.36
2018-10-06T10:44:25.836Z,97803.08
2018-10-06T10:46:56.399Z,97807.61
2018-10-06T10:49:26.703Z,97800.63
2018-10-06T10:51:57.009Z,97803.83
2018-10-06T10:54:27.451Z,97803.16
2018-10-06T10:56:57.716Z,97797.62
2018-10-06T10:59:28.048Z,97790.97
2018-10-06T11:01:59.028Z,97779.21
2018-10-06T11:04:29.555Z,97781.31
2018-10-06T11:07:00.174Z,97768.69
2018-10-06T11:09:31.334Z,97767.93
2018-10-06T11:12:01.670Z,97761.11
2018-10-06T11:14:32.929Z,97748.62
2018-10-06T11:17:03.444Z,97745.95
2018-10-06T11:19:36.089Z,97742.20
2018-10-06T11:22:06.527Z,97740.13
2018-10-06T11:24:37.008Z,97735.09
2018-10-06T11:27:07.521Z,97737.56
2018-10-06T11:29:37.853Z,97724.86
2018-10-06T11:32:08.186Z,97721.03
2018-10-06T11:34:38.560Z,97719.59
2018-10-06T11:37:09.007Z,97715.39
2018-10-06T11:39:39.356Z,97711.19
2018-10-06T11:42:09.900Z,97708.14
2018-10-06T11:44:40.345Z,97703.08
2018-10-06T11:47:10.746Z,97702.27
2018-10-06T11:49:42.098Z,97692.39
2018-10-06T11:52:12.482Z,97693.09
2018-10-06T11:54:42.953Z,97683.34
2018-10-06T11:57:13.400Z,97694.91
2018-10-06T11:59:43.966Z,97674.94
2018-10-06T12:02:14.782Z,97672.98
2018-10-06T12:04:45.552Z,97669.08
2018-10-06T12:07:15.941Z,97669.24
2018-10-06T12:09:46.717Z,97660.52
2018-10-06T12:12:17.190Z,97662.22
2018-10-06T12:14:47.523Z,97656.28
2018-10-06T12:17:18.024Z,97641.53
2018-10-06T12:19:48.498Z,97649.48
2018-10-06T12:22:18.929Z,97638.23
2018-10-06T12:24:49.292Z,97638.73
2018-10-06T12:27:19.718Z,97633.42
2018-10-06T12:29:50.034Z,97625.39
2018-10-06T12:32:20.339Z,97621.03
2018-10-06T12:34:50.764Z,97611.82
2018-10-06T12:37:21.180Z,97618.35
2018-10-06T12:39:51.653Z,97611.94
2018-10-06T12:42:22.332Z,97613.75
2018-10-06T12:44:52.733Z,97602.86
2018-10-06T12:47:23.467Z,97599.30
2018-10-06T12:49:53.828Z,97593.53
2018-10-06T12:52:24.164Z,97599.87
2018-10-06T12:54:54.584Z,97588.47
2018-10-06T12:57:24.913Z,97585.70
2018-10-06T12:59:55.330Z,97577.80
2018-10-06T13:02:25.678Z,97582.47
2018-10-06T13:04:56.014Z,97574.36
2018-10-06T13:07:26.430Z,97564.98
2018-10-06T13:09:56.813Z,97562.73
2018-10-06T13:12:27.147Z,97564.66
2018-10-06T13:14:57.459Z,97563.79
2018-10-06T13:17:27.790Z,97565.67
2018-10-06T13:19:58.447Z,97562.89
2018-10-06T13:22:28.804Z,97551.33
2018-10-06T13:24:59.240Z,97551.20
2018-10-06T13:27:29.587Z,97555.19
2018-10-06T13:29:59.910Z,97551.77
2018-10-06T13:32:30.364Z,97555.30
2018-10-06T13:35:01.130Z,97555.97
2018-10-06T13:37:31.519Z,97551.11
2018-10-06T13:40:01.885Z,97551.73
2018-10-06T13:42:32.237Z,97545.24
2018-10-06T13:45:02.606Z,97540.84
2018-10-06T13:47:33.033Z,97542.58
2018-10-06T13:50:03.493Z,97539.47
2018-10-06T13:52:33.847Z,97544.23
2018-10-06T13:55:04.197Z,97541.44
2018-10-06T13:57:34.510Z,97535.27
2018-10-06T14:00:04.990Z,97528.92
2018-10-06T14:02:35.358Z,97531.66
2018-10-06T14:05:14.897Z,97535.41
2018-10-06T14:07:45.428Z,97534.67
2018-10-06T14:10:15.825Z,97525.70
2018-10-06T14:12:46.148Z,97515.06
2018-10-06T14:15:16.438Z,97514.21
2018-10-06T14:17:47.162Z,97517.84
2018-10-06T14:20:17.492Z,97507.66
2018-10-06T14:22:47.844Z,97507.45
2018-10-06T14:25:18.639Z,97510.05
2018-10-06T14:27:49.252Z,97508.72
2018-10-06T14:30:19.753Z,97513.22
2018-10-06T14:32:50.147Z,97514.75
2018-10-06T14:35:20.493Z,97507.86
2018-10-06T14:37:50.985Z,97515.38
2018-10-06T14:40:21.319Z,97517.58
2018-10-06T14:42:51.803Z,97518.06
2018-10-06T14:45:22.183Z,97514.73
2018-10-06T14:47:52.589Z,97517.38
2018-10-06T14:50:23.055Z,97517.50
2018-10-06T14:52:53.510Z,97520.45
2018-10-06T14:55:23.794Z,97518.64
2018-10-06T14:57:54.226Z,97521.45
2018-10-06T15:00:24.466Z,97524.63
2018-10-06T15:02:54.845Z,97523.98
2018-10-06T15:05:25.088Z,97522.45
2018-10-06T15:07:55.332Z,97522.90
2018-10-06T15:10:25.754Z,97518.47
2018-10-06T15:12:56.017Z,97520.76
2018-10-06T15:15:26.321Z,97512.55
2018-10-06T15:17:56.589Z,97513.50
2018-10-06T15:20:26.886Z,97510.94
2018-10-06T15:23:20.920Z,97507.91
2018-10-06T15:25:51.355Z,97512.62
2018-10-06T15:28:21.634Z,97510.05
2018-10-06T15:30:51.929Z,97508.33
2018-10-06T15:33:22.201Z,97495.80
2018-10-06T15:35:52.525Z,97493.41
2018-10-06T15:38:22.831Z,97490.00
2018-10-06T15:40:53.102Z,97492.73
2018-10-06T15:43:23.417Z,97478.11
2018-10-06T15:45:54.222Z,97492.24
2018-10-06T15:48:24.476Z,97476.56
2018-10-06T15:50:54.854Z,97483.34
2018-10-06T15:53:25.165Z,97483.23
2018-10-06T15:55:55.462Z,97492.30
2018-10-06T15:58:25.858Z,97485.23
2018-10-06T16:00:56.140Z,97492.41
2018-10-06T16:03:26.418Z,97481.85
2018-10-06T16:05:56.710Z,97490.86
2018-10-06T16:08:27.100Z,97485.59
2018-10-06T16:10:57.507Z,97491.59
2018-10-06T16:13:28.841Z,97493.75
2018-10-06T16:15:59.367Z,97495.50
2018-10-06T16:18:29.675Z,97495.47
2018-10-06T16:20:59.929Z,97492.72
2018-10-06T16:23:30.357Z,97491.58
2018-10-06T16:26:00.599Z,97494.68
2018-10-06T16:28:30.961Z,97493.97
2018-10-06T16:31:01.397Z,97487.33
2018-10-06T16:33:31.719Z,97491.10
2018-10-06T16:36:01.933Z,97495.53
2018-10-06T16:38:32.529Z,97493.33
2018-10-06T16:41:03.012Z,97495.38
2018-10-06T16:43:33.551Z,97499.16
2018-10-06T16:46:03.806Z,97500.95
2018-10-06T16:48:34.118Z,97500.45
2018-10-06T16:51:04.463Z,97505.73
2018-10-06T16:53:34.858Z,97504.55
2018-10-06T16:56:05.210Z,97506.20
2018-10-06T16:58:35.597Z,97508.55
2018-10-06T17:01:05.779Z,97510.62
2018-10-06T17:03:36.170Z,97514.00
2018-10-06T17:06:06.541Z,97514.64
2018-10-06T17:08:36.809Z,97512.96
2018-10-06T17:11:07.062Z,97516.83
2018-10-06T17:13:37.396Z,97515.20
2018-10-06T17:16:08.260Z,97510.72
2018-10-06T17:18:38.564Z,97509.81
2018-10-06T17:21:09.125Z,97512.22
2018-10-06T17:23:39.665Z,97509.51
2018-10-06T17:26:10.044Z,97518.16
2018-10-06T17:28:40.522Z,97515.09
2018-10-06T17:31:10.852Z,97513.44
2018-10-06T17:33:41.029Z,97521.17
2018-10-06T17:36:11.507Z,97514.26
2018-10-06T17:38:41.854Z,97514.19
2018-10-06T17:41:12.235Z,97514.36
2018-10-06T17:43:42.719Z,97518.48
2018-10-06T17:46:13.352Z,97523.33
2018-10-06T17:48:43.812Z,97523.61
2018-10-06T17:51:14.103Z,97523.28
2018-10-06T17:53:44.517Z,97521.39
2018-10-06T17:56:18.491Z,97517.92
2018-10-06T17:58:49.485Z,97518.28
2018-10-06T18:01:19.960Z,97513.76
2018-10-06T18:03:50.321Z,97513.55
2018-10-06T18:06:20.567Z,97514.29
2018-10-06T18:08:50.861Z,97510.38
2018-10-06T18:11:21.199Z,97507.74
2018-10-06T18:13:51.597Z,97511.67
2018-10-06T18:16:22.001Z,97512.88
2018-10-06T18:18:52.272Z,97513.11
2018-10-06T18:21:22.978Z,97507.39
2018-10-06T18:23:53.308Z,97516.48
2018-10-06T18:26:23.543Z,97516.27
2018-10-06T18:28:53.841Z,97517.83
2018-10-06T18:31:24.174Z,97524.89
2018-10-06T18:33:54.533Z,97523.30
2018-10-06T18:36:24.883Z,97527.73
2018-10-06T18:38:55.776Z,97529.05
2018-10-06T18:41:26.001Z,97525.84
2018-10-06T18:43:56.396Z,97524.75
2018-10-06T18:46:26.677Z,97531.47
2018-10-06T18:48:57.037Z,97533.52
2018-10-06T18:51:27.306Z,97533.28
2018-10-06T18:53:57.715Z,97528.12
2018-10-06T18:56:28.113Z,97527.28
2018-10-06T18:58:58.743Z,97526.70
2018-10-06T19:01:29.276Z,97519.62
2018-10-06T19:04:00.067Z,97522.27
2018-10-06T19:06:30.814Z,97520.83
2018-10-06T19:09:01.534Z,97522.02
2018-10-06T19:11:32.424Z,97528.13
2018-10-06T19:14:03.174Z,97527.99
2018-10-06T19:16:33.912Z,97535.42
2018-10-06T19:19:04.653Z,97536.95
2018-10-06T19:21:35.464Z,97540.20
2018-10-06T19:24:06.296Z,97540.17
2018-10-06T19:26:37.411Z,97536.95
2018-10-06T19:29:08.316Z,97543.28
2018-10-06T19:31:38.944Z,97539.34
2018-10-06T19:34:09.658Z,97546.50
2018-10-06T19:36:40.418Z,97543.83
2018-10-06T19:39:11.149Z,97548.47
2018-10-06T19:41:41.738Z,97546.31
2018-10-06T19:44:12.946Z,97549.89
2018-10-06T19:46:43.756Z,97550.03
2018-10-06T19:49:14.431Z,97548.83
2018-10-06T19:51:45.223Z,97542.25
2018-10-06T19:54:16.040Z,97546.31
2018-10-06T19:56:46.689Z,97549.16
2018-10-06T19:59:17.343Z,97552.63
2018-10-06T20:01:47.895Z,97564.09
2018-10-06T20:04:18.607Z,97555.72
2018-10-06T20:06:49.213Z,97562.72
2018-10-06T20:09:20.213Z,97562.81
2018-10-06T20:11:50.921Z,97562.33
2018-10-06T20:14:21.580Z,97563.75
2018-10-06T20:16:52.018Z,97566.38
2018-10-06T20:19:22.565Z,97560.28
2018-10-06T20:21:53.052Z,97557.53
2018-10-06T20:24:23.595Z,97563.37
2018-10-06T20:26:54.377Z,97565.52
2018-10-06T20:29:24.686Z,97566.47
2018-10-06T20:31:54.876Z,97568.63
2018-10-06T20:34:25.114Z,97568.52
2018-10-06T20:36:55.504Z,97566.83
2018-10-06T20:39:25.726Z,97567.78
2018-10-06T20:41:55.972Z,97565.36
2018-10-06T20:44:26.681Z,97572.50
2018-10-06T20:46:56.933Z,97570.22
2018-10-06T20:49:27.286Z,97574.73
2018-10-06T20:52:01.082Z,97574.71
2018-10-06T20:54:31.349Z,97572.03
2018-10-06T20:57:01.552Z,97565.17
2018-10-06T20:59:31.913Z,97565.62
2018-10-06T21:02:02.219Z,97565.22
2018-10-06T21:04:32.490Z,97555.63
2018-10-06T21:07:02.771Z,97560.22
2018-10-06T21:09:33.159Z,97561.97
2018-10-06T21:12:03.405Z,97565.64
2018-10-06T21:14:33.805Z,97563.72
2018-10-06T21:17:04.120Z,97569.05
2018-10-06T21:19:34.553Z,97570.34
2018-10-06T21:22:04.841Z,97572.30
2018-10-06T21:24:35.183Z,97568.22
2018-10-06T21:27:05.615Z,97575.52
2018-10-06T21:29:36.086Z,97570.53
2018-10-06T21:32:06.157Z,97565.44
2018-10-06T21:34:36.777Z,97566.23
2018-10-06T21:37:07.231Z,97572.34
2018-10-06T21:39:37.552Z,97569.34
2018-10-06T21:42:07.842Z,97565.64
2018-10-06T21:44:40.104Z,97564.28
2018-10-06T21:47:10.482Z,97560.95
2018-10-06T21:49:40.844Z,97568.55
2018-10-06T21:52:11.217Z,97565.50
2018-10-06T21:54:41.629Z,97572.25
2018-10-06T21:57:26.699Z,97573.41
2018-10-06T21:59:57.138Z,97566.58
2018-10-06T22:02:27.369Z,97569.11
2018-10-06T22:04:57.685Z,97572.48
2018-10-06T22:07:27.929Z,97568.31
2018-10-06T22:09:58.265Z,97569.50
2018-10-06T22:12:28.531Z,97563.45
2018-10-06T22:14:58.958Z,97569.28
2018-10-06T22:17:29.281Z,97559.08
2018-10-06T22:19:59.625Z,97565.62
2018-10-06T22:22:30.023Z,97568.55
2018-10-06T22:25:00.575Z,97572.85
2018-10-06T22:27:30.916Z,97568.39
2018-10-06T22:30:01.179Z,97566.60
2018-10-06T22:32:31.464Z,97568.31
2018-10-06T22:35:01.717Z,97570.02
2018-10-06T22:37:32.417Z,97569.19
2018-10-06T22:40:02.691Z,97570.89
2018-10-06T22:42:32.920Z,97575.08
2018-10-06T22:45:03.260Z,97564.79
2018-10-06T22:47:33.522Z,97562.94
2018-10-06T22:50:03.864Z,97558.73
2018-10-06T22:52:34.149Z,97559.87
2018-10-06T22:55:04.515Z,97549.31
2018-10-06T22:57:34.825Z,97548.94
2018-10-06T23:00:05.240Z,97548.56
2018-10-06T23:02:35.734Z,97545.66
2018-10-06T23:05:06.103Z,97548.74
2018-10-06T23:07:36.513Z,97554.91
2018-10-06T23:10:06.831Z,97556.48
2018-10-06T23:12:37.121Z,97563.58
2018-10-06T23:15:07.553Z,97557.33
2018-10-06T23:17:37.797Z,97556.39
2018-10-06T23:20:08.109Z,97553.02
2018-10-06T23:22:38.380Z,97556.39
2018-10-06T23:25:08.663Z,97560.95
2018-10-06T23:27:39.149Z,97554.70
2018-10-06T23:30:10.219Z,97556.77
2018-10-06T23:32:40.481Z,97560.98
2018-10-06T23:35:10.810Z,97559.12
2018-10-06T23:37:41.093Z,97550.16
2018-10-06T23:40:11.393Z,97551.81
2018-10-06T23:42:41.662Z,97558.36
2018-10-06T23:45:11.944Z,97561.17
2018-10-06T23:47:42.295Z,97562.19
2018-10-06T23:50:12.610Z,97562.66
2018-10-06T23:52:43.018Z,97561.00
2018-10-06T23:55:13.351Z,97560.79
2018-10-06T23:57:43.670Z,97560.16
